ADDS METAR Data INFO
IDs: Format: Raw Decoded Include TAF

Data at: 0743 UTC 23 Jul 2018

KW31 230740Z AUTO 12003KT 3SM OVC005 23/23 A2984 RMK AO2 P0007
KW31 230720Z AUTO 00000KT 7SM OVC003 23/23 A2983 RMK AO2
KW31 230701Z AUTO 00000KT 7SM OVC005 23/23 A2981 RMK AO2
KW31 230640Z AUTO 00000KT 10SM OVC005 23/23 A2982 RMK AO2
KW31 230602Z AUTO 00000KT 10SM OVC007 23/23 A2983 RMK AO2
KW31 230540Z AUTO 00000KT 10SM OVC007 23/23 A2984 RMK AO2
KW31 230520Z AUTO 00000KT 10SM OVC007 23/23 A2985 RMK AO2
KW31 230500Z AUTO 00000KT 10SM OVC007 23/23 A2985 RMK AO2
KW31 230441Z AUTO 00000KT 10SM OVC009 23/23 A2984 RMK AO2
KW31 230401Z AUTO 00000KT 10SM BKN019 BKN025 22/22 A2984 RMK AO2
KW31 230320Z AUTO 00000KT 10SM SCT024 BKN030 OVC044 23/23 A2984 RMK AO2
KW31 230301Z AUTO 00000KT 10SM BKN028 BKN035 OVC042 23/23 A2985 RMK AO2
KW31 230220Z AUTO 00000KT 10SM BKN030 OVC036 23/23 A2984 RMK AO2
KW31 230201Z AUTO 00000KT 10SM BKN032 OVC043 23/23 A2982 RMK AO2
KW31 230141Z AUTO 00000KT 10SM OVC030 23/23 A2982 RMK AO2
KW31 230121Z AUTO 00000KT 10SM OVC030 23/23 A2981 RMK AO2
KW31 230101Z AUTO 00000KT 10SM BKN032 BKN039 BKN050 23/23 A2981 RMK AO2
KW31 230020Z AUTO 00000KT 10SM CLR 23/23 A2980 RMK AO2
KW31 230002Z AUTO 00000KT 10SM CLR 24/22 A2980 RMK AO2
KW31 222340Z AUTO 00000KT 10SM CLR 24/22 A2979 RMK AO2
KW31 222320Z AUTO 00000KT 10SM SCT090 23/22 A2979 RMK AO2
KW31 222241Z AUTO 00000KT 10SM SCT037 SCT050 BKN085 26/22 A2979 RMK AO2
KW31 222221Z AUTO 12004KT 10SM SCT034 SCT045 BKN080 27/22 A2977 RMK AO2
KW31 222201Z AUTO 00000KT 10SM SCT031 SCT047 BKN110 26/22 A2978 RMK AO2
KW31 222141Z AUTO 10003KT 10SM SCT037 27/22 A2978 RMK AO2
KW31 222121Z AUTO 10004KT 10SM SCT030 SCT040 28/22 A2977 RMK AO2
KW31 222100Z AUTO 07003KT 10SM SCT110 28/22 A2976 RMK AO2
KW31 222000Z AUTO 09003KT 10SM SCT028 28/22 A2978 RMK AO2
KW31 221921Z AUTO 00000KT 10SM SCT028 BKN039 BKN048 27/22 A2977 RMK AO2
KW31 221900Z AUTO 00000KT 10SM BKN024 BKN032 BKN039 27/22 A2978 RMK AO2
KW31 221820Z AUTO 00000KT 10SM SCT021 BKN026 OVC034 26/22 A2979 RMK AO2
KW31 221801Z AUTO 00000KT 10SM BKN020 BKN026 25/22 A2980 RMK AO2
KW31 221741Z AUTO 18003KT 10SM BKN016 BKN024 BKN050 24/21 A2981 RMK AO2
KW31 221720Z AUTO 00000KT 10SM BKN014 BKN034 OVC050 24/21 A2982 RMK AO2
KW31 221702Z AUTO 00000KT 10SM BKN012 BKN037 OVC046 23/21 A2982 RMK AO2
KW31 221641Z AUTO 00000KT 10SM BKN012 BKN038 OVC046 23/21 A2982 RMK AO2
KW31 221621Z AUTO 00000KT 10SM SCT008 BKN012 OVC050 23/21 A2982 RMK AO2
KW31 221601Z AUTO 00000KT 10SM BKN008 BKN030 OVC050 22/21 A2982 RMK AO2
KW31 221540Z AUTO 00000KT 10SM BKN006 OVC013 21/21 A2982 RMK AO2
KW31 221521Z AUTO 10SM OVC008 21/21 A2983 RMK AO2
KW31 221440Z AUTO 00000KT 10SM BKN004 BKN044 OVC080 21/21 A2980 RMK AO2
KW31 221420Z AUTO 10SM OVC004 20/20 A2980 RMK AO2
KW31 221400Z AUTO 10SM OVC002 20/20 A2980 RMK AO2
KW31 221342Z AUTO 00000KT 10SM BKN002 BKN047 OVC110 20/20 A2979 RMK AO2
KW31 221320Z AUTO 00000KT 10SM SCT004 SCT049 BKN110 19/19 A2979 RMK AO2
KW31 221300Z AUTO 00000KT 10SM BKN002 BKN013 BKN018 19/19 A2979 RMK AO2
KW31 221241Z AUTO 00000KT 4SM BKN002 BKN019 OVC120 19/19 A2979 RMK AO2 P0005
KW31 221220Z AUTO 00000KT 3SM OVC002 19/19 A2979 RMK AO2 P0003
KW31 221200Z AUTO 00000KT 7SM OVC002 18/18 A2980 RMK AO2
KW31 221140Z AUTO 00000KT 10SM OVC004 18/18 A2979 RMK AO2 P0001
KW31 221122Z AUTO 00000KT 7SM OVC006 18/18 A2979 RMK AO2 P0001
KW31 221100Z AUTO 00000KT 10SM BKN008 OVC050 18/18 A2978 RMK AO2
KW31 221041Z AUTO 14003KT 10SM BKN050 18/18 A2978 RMK AO2
KW31 221020Z AUTO 00000KT 10SM CLR 18/18 A2977 RMK AO2
KW31 221001Z AUTO 00000KT 10SM SCT110 18/18 A2976 RMK AO2
KW31 220941Z AUTO 00000KT 10SM CLR 18/18 A2975 RMK AO2
KW31 220920Z AUTO 00000KT 10SM CLR 18/18 A2974 RMK AO2
KW31 220900Z AUTO 00000KT 10SM CLR 18/18 A2973 RMK AO2
KW31 220841Z AUTO 00000KT 10SM SCT002 SCT120 18/18 A2973 RMK AO2
KW31 220820Z AUTO 00000KT 10SM OVC002 18/18 A2973 RMK AO2
KW31 220801Z AUTO 00000KT 10SM BKN002 BKN011 BKN055 18/18 A2974 RMK AO2
KW31 220740Z AUTO 00000KT 10SM SCT110 18/18 A2975 RMK AO2 P0009
KW31 220720Z AUTO 00000KT 5SM OVC110 18/18 A2977 RMK AO2 P0006
KW31 220701Z AUTO 00000KT 7SM SCT034 SCT048 OVC110 18/18 A2979 RMK AO2
KW31 220640Z AUTO 19004KT 10SM BKN046 BKN050 BKN100 18/18 A2980 RMK AO2 P0001
KW31 220600Z AUTO 00000KT 10SM SCT039 BKN055 BKN070 17/17 A2979 RMK AO2
KW31 220541Z AUTO 00000KT 10SM CLR 17/17 A2977 RMK AO2
KW31 220520Z AUTO 00000KT 10SM CLR 17/17 A2977 RMK AO2
KW31 220500Z AUTO 00000KT 10SM CLR 17/17 A2976 RMK AO2
KW31 220441Z AUTO 00000KT 10SM CLR 17/17 A2977 RMK AO2
KW31 220421Z AUTO 00000KT 10SM CLR 17/17 A2977 RMK AO2
KW31 220401Z AUTO 35003KT 10SM CLR 18/18 A2977 RMK AO2
KW31 220340Z AUTO 00000KT 10SM CLR 18/18 A2977 RMK AO2
KW31 220320Z AUTO 00000KT 10SM CLR 18/18 A2978 RMK AO2
KW31 220301Z AUTO 00000KT 10SM CLR 18/18 A2978 RMK AO2
KW31 220240Z AUTO 00000KT 10SM CLR 18/18 A2979 RMK AO2
KW31 220220Z AUTO 00000KT 10SM CLR 18/18 A2979 RMK AO2
KW31 220140Z AUTO 00000KT 10SM CLR 19/19 A2978 RMK AO2
KW31 220122Z AUTO 00000KT 10SM CLR 20/20 A2977 RMK AO2
KW31 220101Z AUTO 00000KT 10SM CLR 20/20 A2977 RMK AO2
KW31 220020Z AUTO 00000KT 10SM CLR 22/19 A2977 RMK AO2
KW31 220002Z AUTO 00000KT 10SM CLR 22/19 A2977 RMK AO2
KW31 212340Z AUTO 34003KT 10SM BKN025 23/19 A2977 RMK AO2
KW31 212321Z AUTO 34006KT 10SM SCT025 23/19 A2977 RMK AO2
KW31 212300Z AUTO 33009G15KT 10SM SCT021 SCT028 23/19 A2975 RMK AO2
KW31 212241Z AUTO 35006KT 10SM BKN021 BKN028 24/21 A2975 RMK AO2
KW31 212222Z AUTO 35007KT 10SM BKN019 23/20 A2975 RMK AO2
KW31 212201Z AUTO 35008KT 10SM BKN019 BKN025 BKN050 24/20 A2975 RMK AO2
KW31 212140Z AUTO 35009KT 10SM SCT019 BKN025 BKN040 24/20 A2976 RMK AO2
KW31 212120Z AUTO 32005KT 10SM BKN016 BKN022 OVC038 23/21 A2977 RMK AO2
KW31 212040Z AUTO 33007KT 10SM SCT012 BKN017 OVC029 22/21 A2977 RMK AO2
KW31 212020Z AUTO 34009KT 10SM BKN012 BKN018 OVC030 22/21 A2977 RMK AO2
KW31 212000Z AUTO 35012G18KT 10SM BKN012 OVC022 23/21 A2977 RMK AO2